sensor_id;sensor_type;location;lat;lon;timestamp;temperature;humidity
30594;DHT22;33199;47.590;8.300;2023-05-14T00:01:20;17.40;67.70
30594;DHT22;33199;47.590;8.300;2023-05-14T00:03:45;17.40;67.60
30594;DHT22;33199;47.590;8.300;2023-05-14T00:06:11;17.40;67.60
30594;DHT22;33199;47.590;8.300;2023-05-14T00:08:36;17.40;67.70
30594;DHT22;33199;47.590;8.300;2023-05-14T00:11:02;17.40;67.60
30594;DHT22;33199;47.590;8.300;2023-05-14T00:13:27;17.40;67.70
30594;DHT22;33199;47.590;8.300;2023-05-14T00:15:53;17.40;67.60
30594;DHT22;33199;47.590;8.300;2023-05-14T00:18:19;17.40;67.60
30594;DHT22;33199;47.590;8.300;2023-05-14T00:20:44;17.40;67.70
30594;DHT22;33199;47.590;8.300;2023-05-14T00:23:10;17.40;67.70
30594;DHT22;33199;47.590;8.300;2023-05-14T00:25:35;17.40;67.70
30594;DHT22;33199;47.590;8.300;2023-05-14T00:28:01;17.40;67.70
30594;DHT22;33199;47.590;8.300;2023-05-14T00:30:34;17.30;67.60
30594;DHT22;33199;47.590;8.300;2023-05-14T00:33:02;17.30;67.60
30594;DHT22;33199;47.590;8.300;2023-05-14T00:38:37;17.30;67.60
30594;DHT22;33199;47.590;8.300;2023-05-14T00:41:05;17.30;67.60
30594;DHT22;33199;47.590;8.300;2023-05-14T00:43:31;17.30;67.60
30594;DHT22;33199;47.590;8.300;2023-05-14T00:45:57;17.30;67.60
30594;DHT22;33199;47.590;8.300;2023-05-14T00:48:23;17.30;67.70
30594;DHT22;33199;47.590;8.300;2023-05-14T00:50:48;17.30;67.70
30594;DHT22;33199;47.590;8.300;2023-05-14T00:53:14;17.30;67.70
30594;DHT22;33199;47.590;8.300;2023-05-14T00:55:41;17.30;68.60
30594;DHT22;33199;47.590;8.300;2023-05-14T00:58:08;17.30;67.60
30594;DHT22;33199;47.590;8.300;2023-05-14T01:00:35;17.30;67.70
30594;DHT22;33199;47.590;8.300;2023-05-14T01:03:01;17.30;67.70
30594;DHT22;33199;47.590;8.300;2023-05-14T01:05:28;17.30;67.80
30594;DHT22;33199;47.590;8.300;2023-05-14T01:08:02;17.30;67.60
30594;DHT22;33199;47.590;8.300;2023-05-14T01:13:26;17.30;67.70
30594;DHT22;33199;47.590;8.300;2023-05-14T01:15:55;17.30;67.80
30594;DHT22;33199;47.590;8.300;2023-05-14T01:18:22;17.20;67.70
30594;DHT22;33199;47.590;8.300;2023-05-14T01:20:51;17.30;67.70
30594;DHT22;33199;47.590;8.300;2023-05-14T01:23:18;17.20;67.70
30594;DHT22;33199;47.590;8.300;2023-05-14T01:25:43;17.20;67.60
30594;DHT22;33199;47.590;8.300;2023-05-14T01:28:17;17.20;67.70
30594;DHT22;33199;47.590;8.300;2023-05-14T01:30:56;17.20;67.70
30594;DHT22;33199;47.590;8.300;2023-05-14T01:33:23;17.20;67.60
30594;DHT22;33199;47.590;8.300;2023-05-14T01:35:50;17.20;67.70
30594;DHT22;33199;47.590;8.300;2023-05-14T01:38:18;17.20;67.60
30594;DHT22;33199;47.590;8.300;2023-05-14T01:40:44;17.20;67.70
30594;DHT22;33199;47.590;8.300;2023-05-14T01:43:10;17.20;67.70
30594;DHT22;33199;47.590;8.300;2023-05-14T01:45:36;17.20;67.60
30594;DHT22;33199;47.590;8.300;2023-05-14T01:48:03;17.10;67.60
30594;DHT22;33199;47.590;8.300;2023-05-14T01:50:28;17.10;67.70
30594;DHT22;33199;47.590;8.300;2023-05-14T01:52:54;17.10;67.70
30594;DHT22;33199;47.590;8.300;2023-05-14T01:55:21;17.10;67.70
30594;DHT22;33199;47.590;8.300;2023-05-14T01:57:46;17.20;67.70
30594;DHT22;33199;47.590;8.300;2023-05-14T02:00:12;17.10;67.60
30594;DHT22;33199;47.590;8.300;2023-05-14T02:02:37;17.10;67.70
30594;DHT22;33199;47.590;8.300;2023-05-14T02:05:03;17.10;67.70
30594;DHT22;33199;47.590;8.300;2023-05-14T02:07:29;17.10;67.50
30594;DHT22;33199;47.590;8.300;2023-05-14T02:09:54;17.10;67.50
30594;DHT22;33199;47.590;8.300;2023-05-14T02:12:19;17.10;67.60
30594;DHT22;33199;47.590;8.300;2023-05-14T02:14:45;17.10;67.60
30594;DHT22;33199;47.590;8.300;2023-05-14T02:17:11;17.10;67.70
30594;DHT22;33199;47.590;8.300;2023-05-14T02:19:40;17.10;67.60
30594;DHT22;33199;47.590;8.300;2023-05-14T02:22:05;17.10;67.60
30594;DHT22;33199;47.590;8.300;2023-05-14T02:24:31;17.10;67.60
30594;DHT22;33199;47.590;8.300;2023-05-14T02:26:57;17.10;67.60
30594;DHT22;33199;47.590;8.300;2023-05-14T02:29:25;17.10;67.70
30594;DHT22;33199;47.590;8.300;2023-05-14T02:31:51;17.10;67.60
30594;DHT22;33199;47.590;8.300;2023-05-14T02:34:16;17.10;67.70
30594;DHT22;33199;47.590;8.300;2023-05-14T02:36:42;17.00;67.60
30594;DHT22;33199;47.590;8.300;2023-05-14T02:39:07;17.00;67.60
30594;DHT22;33199;47.590;8.300;2023-05-14T02:41:33;17.00;67.60
30594;DHT22;33199;47.590;8.300;2023-05-14T02:43:58;17.00;67.60
30594;DHT22;33199;47.590;8.300;2023-05-14T02:46:24;17.00;67.60
30594;DHT22;33199;47.590;8.300;2023-05-14T02:48:49;17.00;67.60
30594;DHT22;33199;47.590;8.300;2023-05-14T02:51:16;17.00;67.60
30594;DHT22;33199;47.590;8.300;2023-05-14T02:53:41;17.00;67.60
30594;DHT22;33199;47.590;8.300;2023-05-14T02:56:07;17.00;67.60
30594;DHT22;33199;47.590;8.300;2023-05-14T02:58:32;17.00;67.60
30594;DHT22;33199;47.590;8.300;2023-05-14T03:00:58;17.00;67.60
30594;DHT22;33199;47.590;8.300;2023-05-14T03:03:23;17.00;67.60
30594;DHT22;33199;47.590;8.300;2023-05-14T03:05:49;17.00;67.60
30594;DHT22;33199;47.590;8.300;2023-05-14T03:08:15;17.00;67.60
30594;DHT22;33199;47.590;8.300;2023-05-14T03:10:40;16.90;67.50
30594;DHT22;33199;47.590;8.300;2023-05-14T03:13:06;16.90;67.60
30594;DHT22;33199;47.590;8.300;2023-05-14T03:15:31;16.90;67.60
30594;DHT22;33199;47.590;8.300;2023-05-14T03:17:57;16.90;67.50
30594;DHT22;33199;47.590;8.300;2023-05-14T03:20:23;16.90;67.60
30594;DHT22;33199;47.590;8.300;2023-05-14T03:22:48;16.90;67.50
30594;DHT22;33199;47.590;8.300;2023-05-14T03:25:14;16.90;67.60
30594;DHT22;33199;47.590;8.300;2023-05-14T03:27:40;16.90;67.60
30594;DHT22;33199;47.590;8.300;2023-05-14T03:30:05;16.90;67.60
30594;DHT22;33199;47.590;8.300;2023-05-14T03:32:31;16.90;67.80
30594;DHT22;33199;47.590;8.300;2023-05-14T03:34:56;16.90;67.70
30594;DHT22;33199;47.590;8.300;2023-05-14T03:37:22;16.90;67.70
30594;DHT22;33199;47.590;8.300;2023-05-14T03:39:47;16.90;67.60
30594;DHT22;33199;47.590;8.300;2023-05-14T03:42:13;16.90;67.70
30594;DHT22;33199;47.590;8.300;2023-05-14T03:44:38;16.80;67.70
30594;DHT22;33199;47.590;8.300;2023-05-14T03:47:04;16.90;67.70
30594;DHT22;33199;47.590;8.300;2023-05-14T03:49:30;16.80;67.60
30594;DHT22;33199;47.590;8.300;2023-05-14T03:51:57;16.80;67.60
30594;DHT22;33199;47.590;8.300;2023-05-14T03:54:24;16.80;67.60
30594;DHT22;33199;47.590;8.300;2023-05-14T03:56:49;16.80;67.70
30594;DHT22;33199;47.590;8.300;2023-05-14T03:59:15;16.80;67.70
30594;DHT22;33199;47.590;8.300;2023-05-14T04:01:42;16.80;67.60
30594;DHT22;33199;47.590;8.300;2023-05-14T04:04:07;16.80;67.70
30594;DHT22;33199;47.590;8.300;2023-05-14T04:06:33;16.80;68.10
30594;DHT22;33199;47.590;8.300;2023-05-14T04:08:58;16.80;67.70
30594;DHT22;33199;47.590;8.300;2023-05-14T04:11:24;16.80;67.80
30594;DHT22;33199;47.590;8.300;2023-05-14T04:13:49;16.80;67.80
30594;DHT22;33199;47.590;8.300;2023-05-14T04:16:15;16.80;67.80
30594;DHT22;33199;47.590;8.300;2023-05-14T04:18:40;16.80;67.90
30594;DHT22;33199;47.590;8.300;2023-05-14T04:21:06;16.80;67.90
30594;DHT22;33199;47.590;8.300;2023-05-14T04:23:31;16.80;67.80
30594;DHT22;33199;47.590;8.300;2023-05-14T04:25:57;16.80;67.80
30594;DHT22;33199;47.590;8.300;2023-05-14T04:28:22;16.80;67.80
30594;DHT22;33199;47.590;8.300;2023-05-14T04:30:48;16.70;67.70
30594;DHT22;33199;47.590;8.300;2023-05-14T04:33:14;16.80;67.80
30594;DHT22;33199;47.590;8.300;2023-05-14T04:35:40;16.70;67.70
30594;DHT22;33199;47.590;8.300;2023-05-14T04:38:05;16.70;67.70
30594;DHT22;33199;47.590;8.300;2023-05-14T04:40:31;16.70;67.80
30594;DHT22;33199;47.590;8.300;2023-05-14T04:42:56;16.70;67.70
30594;DHT22;33199;47.590;8.300;2023-05-14T04:45:22;16.70;67.70
30594;DHT22;33199;47.590;8.300;2023-05-14T04:47:48;16.70;67.70
30594;DHT22;33199;47.590;8.300;2023-05-14T04:50:14;16.70;67.80
30594;DHT22;33199;47.590;8.300;2023-05-14T04:52:40;16.70;67.70
30594;DHT22;33199;47.590;8.300;2023-05-14T04:55:05;16.70;67.70
30594;DHT22;33199;47.590;8.300;2023-05-14T04:57:31;16.70;67.80
30594;DHT22;33199;47.590;8.300;2023-05-14T04:59:56;16.70;67.80
30594;DHT22;33199;47.590;8.300;2023-05-14T05:02:22;16.70;68.50
30594;DHT22;33199;47.590;8.300;2023-05-14T05:04:47;16.70;67.80
30594;DHT22;33199;47.590;8.300;2023-05-14T05:07:13;16.70;67.80
30594;DHT22;33199;47.590;8.300;2023-05-14T05:09:39;16.60;67.80
30594;DHT22;33199;47.590;8.300;2023-05-14T05:12:04;16.70;67.80
30594;DHT22;33199;47.590;8.300;2023-05-14T05:14:30;16.70;67.80
30594;DHT22;33199;47.590;8.300;2023-05-14T05:16:55;16.60;67.80
30594;DHT22;33199;47.590;8.300;2023-05-14T05:19:21;16.70;67.80
30594;DHT22;33199;47.590;8.300;2023-05-14T05:21:46;16.60;67.80
30594;DHT22;33199;47.590;8.300;2023-05-14T05:24:12;16.70;67.80
30594;DHT22;33199;47.590;8.300;2023-05-14T05:26:38;16.60;67.80
30594;DHT22;33199;47.590;8.300;2023-05-14T05:29:03;16.60;67.80
30594;DHT22;33199;47.590;8.300;2023-05-14T05:31:29;16.60;67.80
30594;DHT22;33199;47.590;8.300;2023-05-14T05:33:55;16.60;68.60
30594;DHT22;33199;47.590;8.300;2023-05-14T05:36:20;16.60;67.80
30594;DHT22;33199;47.590;8.300;2023-05-14T05:38:46;16.60;67.80
30594;DHT22;33199;47.590;8.300;2023-05-14T05:41:11;16.60;67.80
30594;DHT22;33199;47.590;8.300;2023-05-14T05:43:37;16.60;67.70
30594;DHT22;33199;47.590;8.300;2023-05-14T05:46:02;16.60;67.80
30594;DHT22;33199;47.590;8.300;2023-05-14T05:48:28;16.60;67.80
30594;DHT22;33199;47.590;8.300;2023-05-14T05:50:53;16.60;68.00
30594;DHT22;33199;47.590;8.300;2023-05-14T05:53:19;16.60;67.90
30594;DHT22;33199;47.590;8.300;2023-05-14T05:55:44;16.60;67.90
30594;DHT22;33199;47.590;8.300;2023-05-14T05:58:10;16.60;67.90
30594;DHT22;33199;47.590;8.300;2023-05-14T06:00:36;16.60;67.90
30594;DHT22;33199;47.590;8.300;2023-05-14T06:03:02;16.60;67.80
30594;DHT22;33199;47.590;8.300;2023-05-14T06:05:27;16.60;67.80
30594;DHT22;33199;47.590;8.300;2023-05-14T06:07:53;16.60;67.90
30594;DHT22;33199;47.590;8.300;2023-05-14T06:10:19;16.50;67.90
30594;DHT22;33199;47.590;8.300;2023-05-14T06:12:45;16.60;67.90
30594;DHT22;33199;47.590;8.300;2023-05-14T06:15:11;16.60;68.00
30594;DHT22;33199;47.590;8.300;2023-05-14T06:17:37;16.50;67.80
30594;DHT22;33199;47.590;8.300;2023-05-14T06:20:03;16.60;68.00
30594;DHT22;33199;47.590;8.300;2023-05-14T06:22:32;16.60;67.90
30594;DHT22;33199;47.590;8.300;2023-05-14T06:24:58;16.50;67.80
30594;DHT22;33199;47.590;8.300;2023-05-14T06:27:23;16.50;67.90
30594;DHT22;33199;47.590;8.300;2023-05-14T06:29:49;16.50;67.80
30594;DHT22;33199;47.590;8.300;2023-05-14T06:32:14;16.50;67.80
30594;DHT22;33199;47.590;8.300;2023-05-14T06:34:43;16.50;67.90
30594;DHT22;33199;47.590;8.300;2023-05-14T06:37:12;16.50;68.00
30594;DHT22;33199;47.590;8.300;2023-05-14T06:39:56;16.50;68.00
30594;DHT22;33199;47.590;8.300;2023-05-14T06:42:23;16.50;68.00
30594;DHT22;33199;47.590;8.300;2023-05-14T06:44:51;16.50;67.90
30594;DHT22;33199;47.590;8.300;2023-05-14T06:47:17;16.40;66.60
30594;DHT22;33199;47.590;8.300;2023-05-14T06:49:42;16.30;65.90
30594;DHT22;33199;47.590;8.300;2023-05-14T06:52:09;16.30;66.40
30594;DHT22;33199;47.590;8.300;2023-05-14T06:54:37;16.10;67.20
30594;DHT22;33199;47.590;8.300;2023-05-14T06:57:03;16.00;67.90
30594;DHT22;33199;47.590;8.300;2023-05-14T06:59:29;15.90;68.10
30594;DHT22;33199;47.590;8.300;2023-05-14T07:01:54;15.80;68.50
30594;DHT22;33199;47.590;8.300;2023-05-14T07:04:20;15.70;69.30
30594;DHT22;33199;47.590;8.300;2023-05-14T07:06:45;15.60;69.70
30594;DHT22;33199;47.590;8.300;2023-05-14T07:09:11;15.50;70.20
30594;DHT22;33199;47.590;8.300;2023-05-14T07:11:37;15.50;70.60
30594;DHT22;33199;47.590;8.300;2023-05-14T07:14:03;15.50;70.70
30594;DHT22;33199;47.590;8.300;2023-05-14T07:16:28;15.50;70.60
30594;DHT22;33199;47.590;8.300;2023-05-14T07:18:54;15.60;70.40
30594;DHT22;33199;47.590;8.300;2023-05-14T07:21:19;15.60;70.10
30594;DHT22;33199;47.590;8.300;2023-05-14T07:23:45;15.70;70.00
30594;DHT22;33199;47.590;8.300;2023-05-14T07:26:10;15.80;69.80
30594;DHT22;33199;47.590;8.300;2023-05-14T07:28:36;15.80;69.50
30594;DHT22;33199;47.590;8.300;2023-05-14T07:31:01;15.80;69.30
30594;DHT22;33199;47.590;8.300;2023-05-14T07:33:29;15.90;69.30
30594;DHT22;33199;47.590;8.300;2023-05-14T07:35:54;15.90;69.10
30594;DHT22;33199;47.590;8.300;2023-05-14T07:38:20;15.90;68.90
30594;DHT22;33199;47.590;8.300;2023-05-14T07:40:45;16.00;68.80
30594;DHT22;33199;47.590;8.300;2023-05-14T07:43:11;16.00;68.70
30594;DHT22;33199;47.590;8.300;2023-05-14T07:45:37;16.00;68.50
30594;DHT22;33199;47.590;8.300;2023-05-14T07:48:05;16.00;68.40
30594;DHT22;33199;47.590;8.300;2023-05-14T07:50:32;16.00;68.40
30594;DHT22;33199;47.590;8.300;2023-05-14T07:52:57;16.10;68.30
30594;DHT22;33199;47.590;8.300;2023-05-14T07:55:23;16.10;68.30
30594;DHT22;33199;47.590;8.300;2023-05-14T07:57:48;16.10;68.20
30594;DHT22;33199;47.590;8.300;2023-05-14T08:00:14;16.10;68.20
30594;DHT22;33199;47.590;8.300;2023-05-14T08:02:41;16.10;68.10
30594;DHT22;33199;47.590;8.300;2023-05-14T08:05:07;16.10;68.10
30594;DHT22;33199;47.590;8.300;2023-05-14T08:07:33;16.10;68.20
30594;DHT22;33199;47.590;8.300;2023-05-14T08:09:58;16.10;68.20
30594;DHT22;33199;47.590;8.300;2023-05-14T08:12:24;16.10;68.20
30594;DHT22;33199;47.590;8.300;2023-05-14T08:14:50;16.10;68.10
30594;DHT22;33199;47.590;8.300;2023-05-14T08:17:16;16.10;68.20
30594;DHT22;33199;47.590;8.300;2023-05-14T08:19:42;16.10;68.10
30594;DHT22;33199;47.590;8.300;2023-05-14T08:22:07;16.10;68.10
30594;DHT22;33199;47.590;8.300;2023-05-14T08:24:33;16.10;68.10
30594;DHT22;33199;47.590;8.300;2023-05-14T08:26:59;16.10;68.10
30594;DHT22;33199;47.590;8.300;2023-05-14T08:29:24;16.10;68.10
30594;DHT22;33199;47.590;8.300;2023-05-14T08:31:50;16.10;68.10
30594;DHT22;33199;47.590;8.300;2023-05-14T08:34:15;16.10;68.10
30594;DHT22;33199;47.590;8.300;2023-05-14T08:36:41;16.10;68.10
30594;DHT22;33199;47.590;8.300;2023-05-14T08:39:06;16.10;68.10
30594;DHT22;33199;47.590;8.300;2023-05-14T08:41:32;16.10;68.10
30594;DHT22;33199;47.590;8.300;2023-05-14T08:46:30;16.10;68.10
30594;DHT22;33199;47.590;8.300;2023-05-14T08:48:59;16.10;68.10
30594;DHT22;33199;47.590;8.300;2023-05-14T08:51:28;16.10;68.10
30594;DHT22;33199;47.590;8.300;2023-05-14T08:53:53;16.10;68.10
30594;DHT22;33199;47.590;8.300;2023-05-14T08:56:19;16.10;68.10
30594;DHT22;33199;47.590;8.300;2023-05-14T08:58:45;16.10;68.10
30594;DHT22;33199;47.590;8.300;2023-05-14T09:01:11;16.10;68.20
30594;DHT22;33199;47.590;8.300;2023-05-14T09:03:36;16.10;68.10
30594;DHT22;33199;47.590;8.300;2023-05-14T09:06:03;16.10;68.20
30594;DHT22;33199;47.590;8.300;2023-05-14T09:08:29;16.00;72.00
30594;DHT22;33199;47.590;8.300;2023-05-14T09:10:54;16.00;71.80
30594;DHT22;33199;47.590;8.300;2023-05-14T09:13:20;15.90;71.50
30594;DHT22;33199;47.590;8.300;2023-05-14T09:15:45;15.90;71.70
30594;DHT22;33199;47.590;8.300;2023-05-14T09:18:12;15.90;72.70
30594;DHT22;33199;47.590;8.300;2023-05-14T09:20:38;15.90;72.70
30594;DHT22;33199;47.590;8.300;2023-05-14T09:23:03;15.80;72.50
30594;DHT22;33199;47.590;8.300;2023-05-14T09:25:32;15.80;72.40
30594;DHT22;33199;47.590;8.300;2023-05-14T09:27:57;15.80;72.00
30594;DHT22;33199;47.590;8.300;2023-05-14T09:30:23;15.90;71.50
30594;DHT22;33199;47.590;8.300;2023-05-14T09:32:49;15.90;71.00
30594;DHT22;33199;47.590;8.300;2023-05-14T09:35:18;15.90;70.60
30594;DHT22;33199;47.590;8.300;2023-05-14T09:37:45;15.90;70.20
30594;DHT22;33199;47.590;8.300;2023-05-14T09:40:11;16.00;70.10
30594;DHT22;33199;47.590;8.300;2023-05-14T09:42:37;16.00;69.90
30594;DHT22;33199;47.590;8.300;2023-05-14T09:45:03;16.00;69.80
30594;DHT22;33199;47.590;8.300;2023-05-14T09:47:29;16.00;69.70
30594;DHT22;33199;47.590;8.300;2023-05-14T09:49:55;16.00;69.60
30594;DHT22;33199;47.590;8.300;2023-05-14T09:52:22;16.00;69.60
30594;DHT22;33199;47.590;8.300;2023-05-14T09:54:47;16.00;69.60
30594;DHT22;33199;47.590;8.300;2023-05-14T09:57:15;16.00;69.50
30594;DHT22;33199;47.590;8.300;2023-05-14T09:59:40;16.00;69.60
30594;DHT22;33199;47.590;8.300;2023-05-14T10:02:06;16.10;69.60
30594;DHT22;33199;47.590;8.300;2023-05-14T10:04:37;16.00;69.40
30594;DHT22;33199;47.590;8.300;2023-05-14T10:07:02;16.00;69.40
30594;DHT22;33199;47.590;8.300;2023-05-14T10:09:28;16.00;69.30
30594;DHT22;33199;47.590;8.300;2023-05-14T10:11:55;16.00;69.30
30594;DHT22;33199;47.590;8.300;2023-05-14T10:14:24;16.00;69.40
30594;DHT22;33199;47.590;8.300;2023-05-14T10:16:50;16.10;69.40
30594;DHT22;33199;47.590;8.300;2023-05-14T10:19:17;16.00;69.40
30594;DHT22;33199;47.590;8.300;2023-05-14T10:21:44;16.10;69.40
30594;DHT22;33199;47.590;8.300;2023-05-14T10:24:12;16.10;69.40
30594;DHT22;33199;47.590;8.300;2023-05-14T10:26:38;16.10;69.40
30594;DHT22;33199;47.590;8.300;2023-05-14T10:29:05;16.10;69.40
30594;DHT22;33199;47.590;8.300;2023-05-14T10:34:29;16.10;69.40
30594;DHT22;33199;47.590;8.300;2023-05-14T10:36:54;16.10;69.30
30594;DHT22;33199;47.590;8.300;2023-05-14T10:39:22;16.10;69.30
30594;DHT22;33199;47.590;8.300;2023-05-14T10:41:48;16.10;69.30
30594;DHT22;33199;47.590;8.300;2023-05-14T10:44:13;16.10;69.40
30594;DHT22;33199;47.590;8.300;2023-05-14T10:46:40;16.10;69.30
30594;DHT22;33199;47.590;8.300;2023-05-14T10:49:05;16.10;69.40
30594;DHT22;33199;47.590;8.300;2023-05-14T10:51:31;16.10;69.50
30594;DHT22;33199;47.590;8.300;2023-05-14T10:53:57;16.10;69.50
30594;DHT22;33199;47.590;8.300;2023-05-14T10:56:25;16.10;69.40
30594;DHT22;33199;47.590;8.300;2023-05-14T10:58:50;16.10;71.40
30594;DHT22;33199;47.590;8.300;2023-05-14T11:01:16;16.10;71.80
30594;DHT22;33199;47.590;8.300;2023-05-14T11:03:42;16.10;72.60
30594;DHT22;33199;47.590;8.300;2023-05-14T11:06:09;16.10;73.40
30594;DHT22;33199;47.590;8.300;2023-05-14T11:08:35;16.10;73.70
30594;DHT22;33199;47.590;8.300;2023-05-14T11:11:01;16.10;73.60
30594;DHT22;33199;47.590;8.300;2023-05-14T11:13:26;16.20;73.70
30594;DHT22;33199;47.590;8.300;2023-05-14T11:15:52;16.20;73.50
30594;DHT22;33199;47.590;8.300;2023-05-14T11:20:53;16.20;73.40
30594;DHT22;33199;47.590;8.300;2023-05-14T11:23:20;16.30;73.80
30594;DHT22;33199;47.590;8.300;2023-05-14T11:25:46;16.30;73.40
30594;DHT22;33199;47.590;8.300;2023-05-14T11:28:12;16.30;73.40
30594;DHT22;33199;47.590;8.300;2023-05-14T11:30:37;16.30;73.60
30594;DHT22;33199;47.590;8.300;2023-05-14T11:33:03;16.30;73.40
30594;DHT22;33199;47.590;8.300;2023-05-14T11:35:29;16.30;73.60
30594;DHT22;33199;47.590;8.300;2023-05-14T11:37:55;16.30;73.50
30594;DHT22;33199;47.590;8.300;2023-05-14T11:40:20;16.30;73.70
30594;DHT22;33199;47.590;8.300;2023-05-14T11:42:48;16.30;73.50
30594;DHT22;33199;47.590;8.300;2023-05-14T11:45:23;16.30;73.60
30594;DHT22;33199;47.590;8.300;2023-05-14T11:47:49;16.30;73.40
30594;DHT22;33199;47.590;8.300;2023-05-14T11:50:16;16.30;73.50
30594;DHT22;33199;47.590;8.300;2023-05-14T11:52:41;16.30;73.30
30594;DHT22;33199;47.590;8.300;2023-05-14T11:55:11;16.30;73.70
30594;DHT22;33199;47.590;8.300;2023-05-14T11:57:37;16.30;73.60
30594;DHT22;33199;47.590;8.300;2023-05-14T12:00:02;16.30;73.40
30594;DHT22;33199;47.590;8.300;2023-05-14T12:02:33;16.40;73.70
30594;DHT22;33199;47.590;8.300;2023-05-14T12:04:58;16.30;73.40
30594;DHT22;33199;47.590;8.300;2023-05-14T12:07:27;16.40;73.60
30594;DHT22;33199;47.590;8.300;2023-05-14T12:09:53;16.40;73.50
30594;DHT22;33199;47.590;8.300;2023-05-14T12:12:19;16.30;73.60
30594;DHT22;33199;47.590;8.300;2023-05-14T12:14:45;16.40;73.70
30594;DHT22;33199;47.590;8.300;2023-05-14T12:17:15;16.30;73.70
30594;DHT22;33199;47.590;8.300;2023-05-14T12:19:41;16.40;73.70
30594;DHT22;33199;47.590;8.300;2023-05-14T12:22:07;16.40;74.00
30594;DHT22;33199;47.590;8.300;2023-05-14T12:24:33;16.40;73.80
30594;DHT22;33199;47.590;8.300;2023-05-14T12:27:00;16.40;73.60
30594;DHT22;33199;47.590;8.300;2023-05-14T12:29:25;16.40;73.90
30594;DHT22;33199;47.590;8.300;2023-05-14T12:31:51;16.40;73.80
30594;DHT22;33199;47.590;8.300;2023-05-14T12:34:16;16.40;73.90
30594;DHT22;33199;47.590;8.300;2023-05-14T12:36:42;16.40;73.80
30594;DHT22;33199;47.590;8.300;2023-05-14T12:39:08;16.40;73.80
30594;DHT22;33199;47.590;8.300;2023-05-14T12:41:34;16.40;74.10
30594;DHT22;33199;47.590;8.300;2023-05-14T12:43:59;16.40;74.00
30594;DHT22;33199;47.590;8.300;2023-05-14T12:46:25;16.40;73.80
30594;DHT22;33199;47.590;8.300;2023-05-14T12:48:51;16.40;74.20
30594;DHT22;33199;47.590;8.300;2023-05-14T12:51:17;16.40;74.10
30594;DHT22;33199;47.590;8.300;2023-05-14T12:53:42;16.40;74.20
30594;DHT22;33199;47.590;8.300;2023-05-14T12:56:08;16.40;74.10
30594;DHT22;33199;47.590;8.300;2023-05-14T12:58:33;16.40;74.30
30594;DHT22;33199;47.590;8.300;2023-05-14T13:00:59;16.40;74.10
30594;DHT22;33199;47.590;8.300;2023-05-14T13:03:25;16.40;74.20
30594;DHT22;33199;47.590;8.300;2023-05-14T13:05:51;16.40;74.20
30594;DHT22;33199;47.590;8.300;2023-05-14T13:08:17;16.40;74.20
30594;DHT22;33199;47.590;8.300;2023-05-14T13:10:43;16.40;74.30
30594;DHT22;33199;47.590;8.300;2023-05-14T13:13:09;16.40;74.40
30594;DHT22;33199;47.590;8.300;2023-05-14T13:15:36;16.40;74.30
30594;DHT22;33199;47.590;8.300;2023-05-14T13:18:01;16.40;74.20
30594;DHT22;33199;47.590;8.300;2023-05-14T13:20:27;16.50;74.20
30594;DHT22;33199;47.590;8.300;2023-05-14T13:22:53;16.40;74.20
30594;DHT22;33199;47.590;8.300;2023-05-14T13:25:19;16.40;74.30
30594;DHT22;33199;47.590;8.300;2023-05-14T13:27:45;16.50;74.30
30594;DHT22;33199;47.590;8.300;2023-05-14T13:30:10;16.40;74.20
30594;DHT22;33199;47.590;8.300;2023-05-14T13:32:36;16.50;74.40
30594;DHT22;33199;47.590;8.300;2023-05-14T13:35:01;16.50;74.20
30594;DHT22;33199;47.590;8.300;2023-05-14T13:37:27;16.50;75.10
30594;DHT22;33199;47.590;8.300;2023-05-14T13:39:54;16.50;74.20
30594;DHT22;33199;47.590;8.300;2023-05-14T13:42:19;16.50;74.30
30594;DHT22;33199;47.590;8.300;2023-05-14T13:44:45;16.50;74.20
30594;DHT22;33199;47.590;8.300;2023-05-14T13:47:10;16.50;74.30
30594;DHT22;33199;47.590;8.300;2023-05-14T13:49:35;16.50;74.10
30594;DHT22;33199;47.590;8.300;2023-05-14T13:52:01;16.50;73.90
30594;DHT22;33199;47.590;8.300;2023-05-14T13:54:26;16.50;73.80
30594;DHT22;33199;47.590;8.300;2023-05-14T13:56:52;16.50;74.00
30594;DHT22;33199;47.590;8.300;2023-05-14T13:59:17;16.50;73.90
30594;DHT22;33199;47.590;8.300;2023-05-14T14:01:43;16.50;74.00
30594;DHT22;33199;47.590;8.300;2023-05-14T14:04:09;16.50;74.00
30594;DHT22;33199;47.590;8.300;2023-05-14T14:06:34;16.60;74.10
30594;DHT22;33199;47.590;8.300;2023-05-14T14:09:00;16.50;74.10
30594;DHT22;33199;47.590;8.300;2023-05-14T14:11:25;16.60;73.60
30594;DHT22;33199;47.590;8.300;2023-05-14T14:13:51;16.50;72.30
30594;DHT22;33199;47.590;8.300;2023-05-14T14:16:17;16.50;72.50
30594;DHT22;33199;47.590;8.300;2023-05-14T14:18:43;16.50;72.60
30594;DHT22;33199;47.590;8.300;2023-05-14T14:21:09;16.50;72.90
30594;DHT22;33199;47.590;8.300;2023-05-14T14:23:34;16.50;73.80
30594;DHT22;33199;47.590;8.300;2023-05-14T14:26:00;16.50;73.70
30594;DHT22;33199;47.590;8.300;2023-05-14T14:28:25;16.50;73.20
30594;DHT22;33199;47.590;8.300;2023-05-14T14:30:51;16.50;74.30
30594;DHT22;33199;47.590;8.300;2023-05-14T14:33:16;16.50;73.50
30594;DHT22;33199;47.590;8.300;2023-05-14T14:35:42;16.60;72.10
30594;DHT22;33199;47.590;8.300;2023-05-14T14:38:07;16.50;69.30
30594;DHT22;33199;47.590;8.300;2023-05-14T14:40:33;16.50;70.00
30594;DHT22;33199;47.590;8.300;2023-05-14T14:42:59;16.50;71.20
30594;DHT22;33199;47.590;8.300;2023-05-14T14:45:25;16.50;70.70
30594;DHT22;33199;47.590;8.300;2023-05-14T14:47:50;16.50;71.70
30594;DHT22;33199;47.590;8.300;2023-05-14T14:50:16;16.50;72.50
30594;DHT22;33199;47.590;8.300;2023-05-14T14:52:41;16.50;72.90
30594;DHT22;33199;47.590;8.300;2023-05-14T14:55:12;16.50;73.10
30594;DHT22;33199;47.590;8.300;2023-05-14T14:57:37;16.50;73.30
30594;DHT22;33199;47.590;8.300;2023-05-14T15:00:03;16.50;73.40
30594;DHT22;33199;47.590;8.300;2023-05-14T15:02:28;16.50;74.20
30594;DHT22;33199;47.590;8.300;2023-05-14T15:04:57;16.60;74.20
30594;DHT22;33199;47.590;8.300;2023-05-14T15:07:22;16.60;74.00
30594;DHT22;33199;47.590;8.300;2023-05-14T15:09:48;16.60;73.50
30594;DHT22;33199;47.590;8.300;2023-05-14T15:12:14;16.60;73.20
30594;DHT22;33199;47.590;8.300;2023-05-14T15:14:41;16.60;73.10
30594;DHT22;33199;47.590;8.300;2023-05-14T15:17:06;16.70;73.00
30594;DHT22;33199;47.590;8.300;2023-05-14T15:19:32;16.70;73.00
30594;DHT22;33199;47.590;8.300;2023-05-14T15:21:57;16.70;73.20
30594;DHT22;33199;47.590;8.300;2023-05-14T15:24:23;16.70;73.10
30594;DHT22;33199;47.590;8.300;2023-05-14T15:26:50;16.70;73.10
30594;DHT22;33199;47.590;8.300;2023-05-14T15:29:15;16.70;72.90
30594;DHT22;33199;47.590;8.300;2023-05-14T15:31:41;16.70;73.00
30594;DHT22;33199;47.590;8.300;2023-05-14T15:34:06;16.70;73.00
30594;DHT22;33199;47.590;8.300;2023-05-14T15:36:32;16.70;73.00